sensor_id;sensor_type;location;lat;lon;timestamp;temperature;humidity
3954;DHT22;1991;48.682;9.030;2023-02-01T00:02:00;3.00;99.90
3954;DHT22;1991;48.682;9.030;2023-02-01T00:04:25;3.00;99.90
3954;DHT22;1991;48.682;9.030;2023-02-01T00:06:51;3.00;99.90
3954;DHT22;1991;48.682;9.030;2023-02-01T00:09:17;3.00;99.90
3954;DHT22;1991;48.682;9.030;2023-02-01T00:11:43;3.00;99.90
3954;DHT22;1991;48.682;9.030;2023-02-01T00:14:08;3.00;99.90
3954;DHT22;1991;48.682;9.030;2023-02-01T00:16:34;3.00;99.90
3954;DHT22;1991;48.682;9.030;2023-02-01T00:19:03;3.00;99.90
3954;DHT22;1991;48.682;9.030;2023-02-01T00:21:30;2.90;99.90
3954;DHT22;1991;48.682;9.030;2023-02-01T00:23:56;2.90;99.90
3954;DHT22;1991;48.682;9.030;2023-02-01T00:26:33;2.90;99.90
3954;DHT22;1991;48.682;9.030;2023-02-01T00:28:59;3.00;99.90
3954;DHT22;1991;48.682;9.030;2023-02-01T00:31:25;3.00;99.90
3954;DHT22;1991;48.682;9.030;2023-02-01T00:33:51;3.00;99.90
3954;DHT22;1991;48.682;9.030;2023-02-01T00:36:17;3.00;99.90
3954;DHT22;1991;48.682;9.030;2023-02-01T00:38:43;2.90;99.90
3954;DHT22;1991;48.682;9.030;2023-02-01T00:41:18;2.90;99.90
3954;DHT22;1991;48.682;9.030;2023-02-01T00:43:44;2.80;99.90
3954;DHT22;1991;48.682;9.030;2023-02-01T00:46:11;2.80;99.90
3954;DHT22;1991;48.682;9.030;2023-02-01T00:48:37;2.80;99.90
3954;DHT22;1991;48.682;9.030;2023-02-01T00:51:06;2.70;99.90
3954;DHT22;1991;48.682;9.030;2023-02-01T00:53:32;2.70;99.90
3954;DHT22;1991;48.682;9.030;2023-02-01T00:55:58;2.70;99.90
3954;DHT22;1991;48.682;9.030;2023-02-01T00:58:25;2.60;99.90
3954;DHT22;1991;48.682;9.030;2023-02-01T01:01:15;2.60;99.90
3954;DHT22;1991;48.682;9.030;2023-02-01T01:03:43;2.50;99.90
3954;DHT22;1991;48.682;9.030;2023-02-01T01:06:12;2.50;99.90
3954;DHT22;1991;48.682;9.030;2023-02-01T01:08:38;2.50;99.90
3954;DHT22;1991;48.682;9.030;2023-02-01T01:11:17;2.50;99.90
3954;DHT22;1991;48.682;9.030;2023-02-01T01:13:45;2.50;99.90
3954;DHT22;1991;48.682;9.030;2023-02-01T01:16:11;2.50;99.90
3954;DHT22;1991;48.682;9.030;2023-02-01T01:18:37;2.50;99.90
3954;DHT22;1991;48.682;9.030;2023-02-01T01:21:07;2.50;99.90
3954;DHT22;1991;48.682;9.030;2023-02-01T01:23:35;2.50;99.90
3954;DHT22;1991;48.682;9.030;2023-02-01T01:26:00;2.50;99.90
3954;DHT22;1991;48.682;9.030;2023-02-01T01:28:29;2.50;99.90
3954;DHT22;1991;48.682;9.030;2023-02-01T01:30:55;2.50;99.90
3954;DHT22;1991;48.682;9.030;2023-02-01T01:33:20;2.50;99.90
3954;DHT22;1991;48.682;9.030;2023-02-01T01:35:46;2.60;99.90
3954;DHT22;1991;48.682;9.030;2023-02-01T01:38:11;2.60;99.90
3954;DHT22;1991;48.682;9.030;2023-02-01T01:40:37;2.60;99.90
3954;DHT22;1991;48.682;9.030;2023-02-01T01:43:03;2.60;99.90
3954;DHT22;1991;48.682;9.030;2023-02-01T01:45:34;2.60;99.90
3954;DHT22;1991;48.682;9.030;2023-02-01T01:48:23;2.60;99.90
3954;DHT22;1991;48.682;9.030;2023-02-01T01:51:27;2.60;99.90
3954;DHT22;1991;48.682;9.030;2023-02-01T01:53:49;2.60;99.90
3954;DHT22;1991;48.682;9.030;2023-02-01T01:56:17;2.60;99.90
3954;DHT22;1991;48.682;9.030;2023-02-01T01:58:43;2.60;99.90
3954;DHT22;1991;48.682;9.030;2023-02-01T02:01:08;2.60;99.90
3954;DHT22;1991;48.682;9.030;2023-02-01T02:03:52;2.60;99.90
3954;DHT22;1991;48.682;9.030;2023-02-01T02:09:02;2.70;99.90
3954;DHT22;1991;48.682;9.030;2023-02-01T02:11:28;2.60;99.90
3954;DHT22;1991;48.682;9.030;2023-02-01T02:13:55;2.60;99.90
3954;DHT22;1991;48.682;9.030;2023-02-01T02:19:27;2.70;99.90
3954;DHT22;1991;48.682;9.030;2023-02-01T02:25:02;2.70;99.90
3954;DHT22;1991;48.682;9.030;2023-02-01T02:28:00;2.80;99.90
3954;DHT22;1991;48.682;9.030;2023-02-01T02:30:54;2.80;99.90
3954;DHT22;1991;48.682;9.030;2023-02-01T02:36:09;2.80;99.90
3954;DHT22;1991;48.682;9.030;2023-02-01T02:44:35;2.80;99.90
3954;DHT22;1991;48.682;9.030;2023-02-01T02:50:15;2.80;99.90
3954;DHT22;1991;48.682;9.030;2023-02-01T02:53:05;2.90;99.90
3954;DHT22;1991;48.682;9.030;2023-02-01T02:55:51;2.90;99.90
3954;DHT22;1991;48.682;9.030;2023-02-01T02:58:18;2.90;99.90
3954;DHT22;1991;48.682;9.030;2023-02-01T03:01:03;2.90;99.90
3954;DHT22;1991;48.682;9.030;2023-02-01T03:03:48;2.90;99.90
3954;DHT22;1991;48.682;9.030;2023-02-01T03:06:34;2.90;99.90
3954;DHT22;1991;48.682;9.030;2023-02-01T03:09:02;2.90;99.90
3954;DHT22;1991;48.682;9.030;2023-02-01T03:11:29;2.80;99.90
3954;DHT22;1991;48.682;9.030;2023-02-01T03:14:18;2.80;99.90
3954;DHT22;1991;48.682;9.030;2023-02-01T03:16:47;2.80;99.90
3954;DHT22;1991;48.682;9.030;2023-02-01T03:19:31;2.80;99.90
3954;DHT22;1991;48.682;9.030;2023-02-01T03:22:05;2.80;99.90
3954;DHT22;1991;48.682;9.030;2023-02-01T03:24:39;2.80;99.90
3954;DHT22;1991;48.682;9.030;2023-02-01T03:27:24;2.90;99.90
3954;DHT22;1991;48.682;9.030;2023-02-01T03:29:59;2.90;99.90
3954;DHT22;1991;48.682;9.030;2023-02-01T03:32:26;2.90;99.90
3954;DHT22;1991;48.682;9.030;2023-02-01T03:34:52;2.90;99.90
3954;DHT22;1991;48.682;9.030;2023-02-01T03:37:28;2.90;99.90
3954;DHT22;1991;48.682;9.030;2023-02-01T03:40:00;2.90;99.90
3954;DHT22;1991;48.682;9.030;2023-02-01T03:42:33;2.90;99.90
3954;DHT22;1991;48.682;9.030;2023-02-01T03:45:08;2.90;99.90
3954;DHT22;1991;48.682;9.030;2023-02-01T03:47:38;2.90;99.90
3954;DHT22;1991;48.682;9.030;2023-02-01T03:50:08;2.90;99.90
3954;DHT22;1991;48.682;9.030;2023-02-01T03:52:48;2.90;99.90
3954;DHT22;1991;48.682;9.030;2023-02-01T03:55:18;2.90;99.90
3954;DHT22;1991;48.682;9.030;2023-02-01T03:58:12;2.80;99.90
3954;DHT22;1991;48.682;9.030;2023-02-01T04:00:38;2.90;99.90
3954;DHT22;1991;48.682;9.030;2023-02-01T04:03:05;2.90;99.90
3954;DHT22;1991;48.682;9.030;2023-02-01T04:05:32;2.90;99.90
3954;DHT22;1991;48.682;9.030;2023-02-01T04:07:58;2.90;99.90
3954;DHT22;1991;48.682;9.030;2023-02-01T04:10:24;2.90;99.90
3954;DHT22;1991;48.682;9.030;2023-02-01T04:12:49;2.80;99.90
3954;DHT22;1991;48.682;9.030;2023-02-01T04:15:15;2.90;99.90
3954;DHT22;1991;48.682;9.030;2023-02-01T04:17:41;2.90;99.90
3954;DHT22;1991;48.682;9.030;2023-02-01T04:20:07;2.90;99.90
3954;DHT22;1991;48.682;9.030;2023-02-01T04:22:34;2.90;99.90
3954;DHT22;1991;48.682;9.030;2023-02-01T04:25:00;2.90;99.90
3954;DHT22;1991;48.682;9.030;2023-02-01T04:27:26;2.90;99.90
3954;DHT22;1991;48.682;9.030;2023-02-01T04:29:51;3.00;99.90
3954;DHT22;1991;48.682;9.030;2023-02-01T04:32:18;3.00;99.90
3954;DHT22;1991;48.682;9.030;2023-02-01T04:34:45;3.10;99.90
3954;DHT22;1991;48.682;9.030;2023-02-01T04:37:10;3.10;99.90
3954;DHT22;1991;48.682;9.030;2023-02-01T04:39:36;3.10;99.90
3954;DHT22;1991;48.682;9.030;2023-02-01T04:42:02;3.10;99.90
3954;DHT22;1991;48.682;9.030;2023-02-01T04:44:28;3.00;99.90
3954;DHT22;1991;48.682;9.030;2023-02-01T04:46:53;3.00;99.90
3954;DHT22;1991;48.682;9.030;2023-02-01T04:49:19;3.00;99.90
3954;DHT22;1991;48.682;9.030;2023-02-01T04:51:46;3.00;99.90
3954;DHT22;1991;48.682;9.030;2023-02-01T04:54:12;3.00;99.90
3954;DHT22;1991;48.682;9.030;2023-02-01T04:56:38;3.00;99.90
3954;DHT22;1991;48.682;9.030;2023-02-01T04:59:04;3.00;99.90
3954;DHT22;1991;48.682;9.030;2023-02-01T05:01:30;3.10;99.90
3954;DHT22;1991;48.682;9.030;2023-02-01T05:03:56;3.10;99.90
3954;DHT22;1991;48.682;9.030;2023-02-01T05:06:22;3.10;99.90
3954;DHT22;1991;48.682;9.030;2023-02-01T05:08:48;3.10;99.90
3954;DHT22;1991;48.682;9.030;2023-02-01T05:11:14;3.00;99.90
3954;DHT22;1991;48.682;9.030;2023-02-01T05:13:59;3.00;99.90
3954;DHT22;1991;48.682;9.030;2023-02-01T05:16:25;3.00;99.90
3954;DHT22;1991;48.682;9.030;2023-02-01T05:18:52;3.00;99.90
3954;DHT22;1991;48.682;9.030;2023-02-01T05:21:17;3.00;99.90
3954;DHT22;1991;48.682;9.030;2023-02-01T05:23:43;3.00;99.90
3954;DHT22;1991;48.682;9.030;2023-02-01T05:26:27;3.00;99.90
3954;DHT22;1991;48.682;9.030;2023-02-01T05:28:53;3.00;99.90
3954;DHT22;1991;48.682;9.030;2023-02-01T05:31:19;3.10;99.90
3954;DHT22;1991;48.682;9.030;2023-02-01T05:33:44;3.10;99.90
3954;DHT22;1991;48.682;9.030;2023-02-01T05:36:10;3.10;99.90
3954;DHT22;1991;48.682;9.030;2023-02-01T05:38:35;3.10;99.90
3954;DHT22;1991;48.682;9.030;2023-02-01T05:41:01;3.10;99.90
3954;DHT22;1991;48.682;9.030;2023-02-01T05:43:26;3.10;99.90
3954;DHT22;1991;48.682;9.030;2023-02-01T05:45:52;3.20;99.90
3954;DHT22;1991;48.682;9.030;2023-02-01T05:48:18;3.20;99.90
3954;DHT22;1991;48.682;9.030;2023-02-01T05:50:44;3.20;99.90
3954;DHT22;1991;48.682;9.030;2023-02-01T05:53:10;3.20;99.90
3954;DHT22;1991;48.682;9.030;2023-02-01T05:55:36;3.20;99.90
3954;DHT22;1991;48.682;9.030;2023-02-01T05:58:02;3.10;99.90
3954;DHT22;1991;48.682;9.030;2023-02-01T06:00:27;3.20;99.90
3954;DHT22;1991;48.682;9.030;2023-02-01T06:02:53;3.10;99.90
3954;DHT22;1991;48.682;9.030;2023-02-01T06:05:18;3.10;99.90
3954;DHT22;1991;48.682;9.030;2023-02-01T06:07:44;3.10;99.90
3954;DHT22;1991;48.682;9.030;2023-02-01T06:10:10;3.10;99.90
3954;DHT22;1991;48.682;9.030;2023-02-01T06:12:36;3.20;99.90
3954;DHT22;1991;48.682;9.030;2023-02-01T06:15:01;3.30;99.90
3954;DHT22;1991;48.682;9.030;2023-02-01T06:17:27;3.20;99.90
3954;DHT22;1991;48.682;9.030;2023-02-01T06:19:52;3.30;99.90
3954;DHT22;1991;48.682;9.030;2023-02-01T06:22:18;3.20;99.90
3954;DHT22;1991;48.682;9.030;2023-02-01T06:24:44;3.30;99.90
3954;DHT22;1991;48.682;9.030;2023-02-01T06:27:09;3.30;99.90
3954;DHT22;1991;48.682;9.030;2023-02-01T06:29:35;3.30;99.90
3954;DHT22;1991;48.682;9.030;2023-02-01T06:32:01;3.20;99.90
3954;DHT22;1991;48.682;9.030;2023-02-01T06:34:27;3.30;99.90
3954;DHT22;1991;48.682;9.030;2023-02-01T06:36:52;3.30;99.90
3954;DHT22;1991;48.682;9.030;2023-02-01T06:39:20;3.20;99.90
3954;DHT22;1991;48.682;9.030;2023-02-01T06:41:46;3.20;99.90
3954;DHT22;1991;48.682;9.030;2023-02-01T06:44:12;3.20;99.90
3954;DHT22;1991;48.682;9.030;2023-02-01T06:46:38;3.20;99.90
3954;DHT22;1991;48.682;9.030;2023-02-01T06:49:03;3.20;99.90
3954;DHT22;1991;48.682;9.030;2023-02-01T06:51:29;3.10;99.90
3954;DHT22;1991;48.682;9.030;2023-02-01T06:53:55;3.10;99.90
3954;DHT22;1991;48.682;9.030;2023-02-01T06:56:21;3.20;99.90
3954;DHT22;1991;48.682;9.030;2023-02-01T06:58:47;3.20;99.90
3954;DHT22;1991;48.682;9.030;2023-02-01T07:01:13;3.10;99.90
3954;DHT22;1991;48.682;9.030;2023-02-01T07:03:39;3.20;99.90
3954;DHT22;1991;48.682;9.030;2023-02-01T07:06:05;3.30;99.90
3954;DHT22;1991;48.682;9.030;2023-02-01T07:08:33;3.30;99.90
3954;DHT22;1991;48.682;9.030;2023-02-01T07:11:07;3.30;99.90
3954;DHT22;1991;48.682;9.030;2023-02-01T07:13:33;3.30;99.90
3954;DHT22;1991;48.682;9.030;2023-02-01T07:16:05;3.30;99.90
3954;DHT22;1991;48.682;9.030;2023-02-01T07:18:31;3.20;99.90
3954;DHT22;1991;48.682;9.030;2023-02-01T07:20:57;3.20;99.90
3954;DHT22;1991;48.682;9.030;2023-02-01T07:23:23;3.20;99.90
3954;DHT22;1991;48.682;9.030;2023-02-01T07:25:53;3.30;99.90
3954;DHT22;1991;48.682;9.030;2023-02-01T07:28:19;3.30;99.90
3954;DHT22;1991;48.682;9.030;2023-02-01T07:30:44;3.40;99.90
3954;DHT22;1991;48.682;9.030;2023-02-01T07:33:19;3.40;99.90
3954;DHT22;1991;48.682;9.030;2023-02-01T07:35:46;3.50;99.90
3954;DHT22;1991;48.682;9.030;2023-02-01T07:38:12;3.50;99.90
3954;DHT22;1991;48.682;9.030;2023-02-01T07:40:38;3.50;99.90
3954;DHT22;1991;48.682;9.030;2023-02-01T07:43:04;3.50;99.90
3954;DHT22;1991;48.682;9.030;2023-02-01T07:45:31;3.50;99.90
3954;DHT22;1991;48.682;9.030;2023-02-01T07:47:57;3.60;99.90
3954;DHT22;1991;48.682;9.030;2023-02-01T07:50:22;3.50;99.90
3954;DHT22;1991;48.682;9.030;2023-02-01T07:52:48;3.50;99.90
3954;DHT22;1991;48.682;9.030;2023-02-01T07:55:13;3.50;99.90
3954;DHT22;1991;48.682;9.030;2023-02-01T07:57:39;3.60;99.90
3954;DHT22;1991;48.682;9.030;2023-02-01T08:00:05;3.60;99.90
3954;DHT22;1991;48.682;9.030;2023-02-01T08:02:49;3.70;99.90
3954;DHT22;1991;48.682;9.030;2023-02-01T08:05:15;3.70;99.90
3954;DHT22;1991;48.682;9.030;2023-02-01T08:07:41;3.80;99.90
3954;DHT22;1991;48.682;9.030;2023-02-01T08:10:06;3.80;99.90
3954;DHT22;1991;48.682;9.030;2023-02-01T08:12:36;3.80;99.90
3954;DHT22;1991;48.682;9.030;2023-02-01T08:15:03;3.80;99.90
3954;DHT22;1991;48.682;9.030;2023-02-01T08:17:28;3.80;99.90
3954;DHT22;1991;48.682;9.030;2023-02-01T08:19:54;3.90;99.90
3954;DHT22;1991;48.682;9.030;2023-02-01T08:22:20;3.90;99.90
3954;DHT22;1991;48.682;9.030;2023-02-01T08:24:48;3.90;99.90
3954;DHT22;1991;48.682;9.030;2023-02-01T08:27:13;4.00;99.90
3954;DHT22;1991;48.682;9.030;2023-02-01T08:29:39;4.00;99.90
3954;DHT22;1991;48.682;9.030;2023-02-01T08:32:05;4.00;99.90
3954;DHT22;1991;48.682;9.030;2023-02-01T08:34:30;4.00;99.90
3954;DHT22;1991;48.682;9.030;2023-02-01T08:36:56;4.00;99.90
3954;DHT22;1991;48.682;9.030;2023-02-01T08:39:25;4.10;99.90
3954;DHT22;1991;48.682;9.030;2023-02-01T08:41:51;4.10;99.90
3954;DHT22;1991;48.682;9.030;2023-02-01T08:44:36;4.10;99.90
3954;DHT22;1991;48.682;9.030;2023-02-01T08:47:02;4.20;99.90
3954;DHT22;1991;48.682;9.030;2023-02-01T08:49:29;4.30;99.90
3954;DHT22;1991;48.682;9.030;2023-02-01T08:51:54;4.30;99.90
3954;DHT22;1991;48.682;9.030;2023-02-01T08:54:21;4.30;99.90
3954;DHT22;1991;48.682;9.030;2023-02-01T08:56:46;4.30;99.90
3954;DHT22;1991;48.682;9.030;2023-02-01T08:59:12;4.30;99.90
3954;DHT22;1991;48.682;9.030;2023-02-01T09:01:37;4.30;99.90
3954;DHT22;1991;48.682;9.030;2023-02-01T09:04:03;4.30;99.90
3954;DHT22;1991;48.682;9.030;2023-02-01T09:06:29;4.20;99.90
3954;DHT22;1991;48.682;9.030;2023-02-01T09:08:54;4.20;99.90
3954;DHT22;1991;48.682;9.030;2023-02-01T09:11:20;4.20;99.90
3954;DHT22;1991;48.682;9.030;2023-02-01T09:13:46;4.20;99.90
3954;DHT22;1991;48.682;9.030;2023-02-01T09:16:12;4.20;99.90
3954;DHT22;1991;48.682;9.030;2023-02-01T09:18:38;4.10;99.90
3954;DHT22;1991;48.682;9.030;2023-02-01T09:21:06;4.10;99.90
3954;DHT22;1991;48.682;9.030;2023-02-01T09:23:32;4.10;99.90
3954;DHT22;1991;48.682;9.030;2023-02-01T09:26:02;4.10;99.90
3954;DHT22;1991;48.682;9.030;2023-02-01T09:28:28;4.30;99.90
3954;DHT22;1991;48.682;9.030;2023-02-01T09:31:01;4.30;99.90
3954;DHT22;1991;48.682;9.030;2023-02-01T09:33:28;4.40;99.90
3954;DHT22;1991;48.682;9.030;2023-02-01T09:36:02;4.50;99.90
3954;DHT22;1991;48.682;9.030;2023-02-01T09:38:28;4.60;99.90
3954;DHT22;1991;48.682;9.030;2023-02-01T09:40:54;4.70;99.90
3954;DHT22;1991;48.682;9.030;2023-02-01T09:43:42;4.70;99.90
3954;DHT22;1991;48.682;9.030;2023-02-01T09:46:23;4.80;99.90
3954;DHT22;1991;48.682;9.030;2023-02-01T09:48:53;4.80;99.90
3954;DHT22;1991;48.682;9.030;2023-02-01T09:51:27;4.90;99.90
3954;DHT22;1991;48.682;9.030;2023-02-01T09:54:15;5.00;99.90
3954;DHT22;1991;48.682;9.030;2023-02-01T09:56:48;5.10;99.90
3954;DHT22;1991;48.682;9.030;2023-02-01T09:59:39;5.10;99.90
3954;DHT22;1991;48.682;9.030;2023-02-01T10:02:23;5.10;99.90
3954;DHT22;1991;48.682;9.030;2023-02-01T10:04:49;5.10;99.90
3954;DHT22;1991;48.682;9.030;2023-02-01T10:16:13;5.40;99.90
3954;DHT22;1991;48.682;9.030;2023-02-01T10:21:54;5.60;99.90
3954;DHT22;1991;48.682;9.030;2023-02-01T10:29:45;5.70;99.90
3954;DHT22;1991;48.682;9.030;2023-02-01T10:32:18;5.70;99.90
3954;DHT22;1991;48.682;9.030;2023-02-01T10:34:49;5.70;99.90
3954;DHT22;1991;48.682;9.030;2023-02-01T10:37:33;5.60;99.90
3954;DHT22;1991;48.682;9.030;2023-02-01T10:40:15;5.70;99.90
3954;DHT22;1991;48.682;9.030;2023-02-01T10:42:41;5.60;99.90
3954;DHT22;1991;48.682;9.030;2023-02-01T10:45:19;5.60;99.90
3954;DHT22;1991;48.682;9.030;2023-02-01T10:47:47;5.60;99.90
3954;DHT22;1991;48.682;9.030;2023-02-01T10:52:52;5.70;99.90
3954;DHT22;1991;48.682;9.030;2023-02-01T10:55:46;5.70;99.90
3954;DHT22;1991;48.682;9.030;2023-02-01T10:58:29;5.70;99.90
3954;DHT22;1991;48.682;9.030;2023-02-01T11:01:02;5.60;99.90
3954;DHT22;1991;48.682;9.030;2023-02-01T11:03:57;5.60;99.90
3954;DHT22;1991;48.682;9.030;2023-02-01T11:08:54;5.70;99.90
3954;DHT22;1991;48.682;9.030;2023-02-01T11:11:21;5.80;99.90
3954;DHT22;1991;48.682;9.030;2023-02-01T11:14:02;5.80;99.90
3954;DHT22;1991;48.682;9.030;2023-02-01T11:16:37;5.70;99.90
3954;DHT22;1991;48.682;9.030;2023-02-01T11:19:04;5.80;99.90
3954;DHT22;1991;48.682;9.030;2023-02-01T11:21:30;5.70;99.90
3954;DHT22;1991;48.682;9.030;2023-02-01T11:24:01;5.80;99.90
3954;DHT22;1991;48.682;9.030;2023-02-01T11:26:28;5.70;99.90
3954;DHT22;1991;48.682;9.030;2023-02-01T11:29:18;5.80;99.90
3954;DHT22;1991;48.682;9.030;2023-02-01T11:31:44;5.80;99.90
3954;DHT22;1991;48.682;9.030;2023-02-01T11:34:14;5.90;99.90
3954;DHT22;1991;48.682;9.030;2023-02-01T11:36:41;5.90;99.90
3954;DHT22;1991;48.682;9.030;2023-02-01T11:39:15;5.90;99.90
3954;DHT22;1991;48.682;9.030;2023-02-01T11:46:54;5.70;99.90
3954;DHT22;1991;48.682;9.030;2023-02-01T11:49:27;5.60;99.90
3954;DHT22;1991;48.682;9.030;2023-02-01T11:57:08;5.50;99.90
3954;DHT22;1991;48.682;9.030;2023-02-01T12:16:49;5.30;99.90
3954;DHT22;1991;48.682;9.030;2023-02-01T12:21:06;5.40;99.90
3954;DHT22;1991;48.682;9.030;2023-02-01T12:26:50;5.30;99.90
3954;DHT22;1991;48.682;9.030;2023-02-01T12:30:10;5.30;99.90
3954;DHT22;1991;48.682;9.030;2023-02-01T12:35:38;5.30;99.90
3954;DHT22;1991;48.682;9.030;2023-02-01T12:38:29;5.30;99.90
3954;DHT22;1991;48.682;9.030;2023-02-01T12:43:58;5.20;99.90
3954;DHT22;1991;48.682;9.030;2023-02-01T12:46:49;5.20;99.90
3954;DHT22;1991;48.682;9.030;2023-02-01T12:49:31;5.20;99.90
3954;DHT22;1991;48.682;9.030;2023-02-01T12:52:04;5.20;99.90
3954;DHT22;1991;48.682;9.030;2023-02-01T12:57:35;5.20;99.90
3954;DHT22;1991;48.682;9.030;2023-02-01T13:05:53;5.20;99.90
3954;DHT22;1991;48.682;9.030;2023-02-01T13:08:25;5.20;99.90
3954;DHT22;1991;48.682;9.030;2023-02-01T13:11:04;5.20;99.90
3954;DHT22;1991;48.682;9.030;2023-02-01T13:13:41;5.20;99.90
3954;DHT22;1991;48.682;9.030;2023-02-01T13:16:39;5.20;99.90
3954;DHT22;1991;48.682;9.030;2023-02-01T13:19:29;5.20;99.90
3954;DHT22;1991;48.682;9.030;2023-02-01T13:21:59;5.20;99.90
3954;DHT22;1991;48.682;9.030;2023-02-01T13:26:59;5.30;99.90
3954;DHT22;1991;48.682;9.030;2023-02-01T13:29:26;5.30;99.90
3954;DHT22;1991;48.682;9.030;2023-02-01T13:32:08;5.30;99.90
3954;DHT22;1991;48.682;9.030;2023-02-01T13:35:01;5.30;99.90
3954;DHT22;1991;48.682;9.030;2023-02-01T13:43:13;5.20;99.90
3954;DHT22;1991;48.682;9.030;2023-02-01T13:45:47;5.20;99.90
3954;DHT22;1991;48.682;9.030;2023-02-01T13:49:00;5.30;99.90
3954;DHT22;1991;48.682;9.030;2023-02-01T13:51:40;5.20;99.90
3954;DHT22;1991;48.682;9.030;2023-02-01T13:54:06;5.20;99.90
3954;DHT22;1991;48.682;9.030;2023-02-01T13:56:42;5.30;99.90
3954;DHT22;1991;48.682;9.030;2023-02-01T13:59:48;5.20;99.90
3954;DHT22;1991;48.682;9.030;2023-02-01T14:05:09;5.20;99.90
3954;DHT22;1991;48.682;9.030;2023-02-01T14:07:35;5.20;99.90
3954;DHT22;1991;48.682;9.030;2023-02-01T14:13:13;5.20;99.90
3954;DHT22;1991;48.682;9.030;2023-02-01T14:15:39;5.20;99.90
3954;DHT22;1991;48.682;9.030;2023-02-01T14:18:48;5.10;99.90
3954;DHT22;1991;48.682;9.030;2023-02-01T14:21:28;5.10;99.90
3954;DHT22;1991;48.682;9.030;2023-02-01T14:24:12;5.10;99.90
3954;DHT22;1991;48.682;9.030;2023-02-01T14:26:43;5.10;99.90
3954;DHT22;1991;48.682;9.030;2023-02-01T14:34:15;5.10;99.90
3954;DHT22;1991;48.682;9.030;2023-02-01T14:36:45;5.10;99.90
3954;DHT22;1991;48.682;9.030;2023-02-01T14:39:27;5.00;99.90
3954;DHT22;1991;48.682;9.030;2023-02-01T14:41:56;5.00;99.90
3954;DHT22;1991;48.682;9.030;2023-02-01T14:44:31;5.00;99.90
3954;DHT22;1991;48.682;9.030;2023-02-01T14:52:40;5.00;99.90
3954;DHT22;1991;48.682;9.030;2023-02-01T14:55:49;5.00;99.90
3954;DHT22;1991;48.682;9.030;2023-02-01T14:58:31;5.00;99.90
3954;DHT22;1991;48.682;9.030;2023-02-01T15:01:01;5.00;99.90
3954;DHT22;1991;48.682;9.030;2023-02-01T15:03:33;5.00;99.90
3954;DHT22;1991;48.682;9.030;2023-02-01T15:06:00;5.00;99.90
3954;DHT22;1991;48.682;9.030;2023-02-01T15:08:33;5.00;99.90
3954;DHT22;1991;48.682;9.030;2023-02-01T15:11:08;5.00;99.90
3954;DHT22;1991;48.682;9.030;2023-02-01T15:13:36;5.10;99.90
3954;DHT22;1991;48.682;9.030;2023-02-01T15:16:11;5.10;99.90
3954;DHT22;1991;48.682;9.030;2023-02-01T15:18:37;5.10;99.90
3954;DHT22;1991;48.682;9.030;2023-02-01T15:21:04;5.10;99.90
3954;DHT22;1991;48.682;9.030;2023-02-01T15:23:31;5.00;99.90
3954;DHT22;1991;48.682;9.030;2023-02-01T15:25:57;5.10;99.90
3954;DHT22;1991;48.682;9.030;2023-02-01T15:28:24;5.10;99.90
3954;DHT22;1991;48.682;9.030;2023-02-01T15:31:02;5.10;99.90
3954;DHT22;1991;48.682;9.030;2023-02-01T15:33:29;5.00;99.90
3954;DHT22;1991;48.682;9.030;2023-02-01T15:36:08;5.00;99.90
3954;DHT22;1991;48.682;9.030;2023-02-01T15:38:37;5.00;99.90
3954;DHT22;1991;48.682;9.030;2023-02-01T15:43:43;4.90;99.90
3954;DHT22;1991;48.682;9.030;2023-02-01T15:46:16;4.90;99.90
3954;DHT22;1991;48.682;9.030;2023-02-01T15:48:48;4.90;99.90
3954;DHT22;1991;48.682;9.030;2023-02-01T15:51:23;4.80;99.90
3954;DHT22;1991;48.682;9.030;2023-02-01T15:54:15;4.80;99.90
3954;DHT22;1991;48.682;9.030;2023-02-01T15:56:41;4.80;99.90
3954;DHT22;1991;48.682;9.030;2023-02-01T15:59:15;4.80;99.90
3954;DHT22;1991;48.682;9.030;2023-02-01T16:01:41;4.70;99.90
3954;DHT22;1991;48.682;9.030;2023-02-01T16:04:17;4.70;99.90
3954;DHT22;1991;48.682;9.030;2023-02-01T16:10:25;4.70;99.90
3954;DHT22;1991;48.682;9.030;2023-02-01T16:12:51;4.60;99.90
3954;DHT22;1991;48.682;9.030;2023-02-01T16:15:19;5.00;99.90
3954;DHT22;1991;48.682;9.030;2023-02-01T16:17:45;4.60;99.90
3954;DHT22;1991;48.682;9.030;2023-02-01T16:20:11;4.40;99.90
3954;DHT22;1991;48.682;9.030;2023-02-01T16:22:37;4.30;99.90
3954;DHT22;1991;48.682;9.030;2023-02-01T16:25:03;4.30;99.90
3954;DHT22;1991;48.682;9.030;2023-02-01T16:27:28;4.30;99.90
3954;DHT22;1991;48.682;9.030;2023-02-01T16:29:54;4.30;99.90
3954;DHT22;1991;48.682;9.030;2023-02-01T16:32:21;4.20;99.90
3954;DHT22;1991;48.682;9.030;2023-02-01T16:34:48;4.30;99.90
3954;DHT22;1991;48.682;9.030;2023-02-01T16:37:17;4.30;99.90
3954;DHT22;1991;48.682;9.030;2023-02-01T16:39:44;4.30;99.90
3954;DHT22;1991;48.682;9.030;2023-02-01T16:42:14;4.40;99.90
3954;DHT22;1991;48.682;9.030;2023-02-01T16:44:40;4.40;99.90
3954;DHT22;1991;48.682;9.030;2023-02-01T16:47:15;4.40;99.90
3954;DHT22;1991;48.682;9.030;2023-02-01T16:49:42;4.40;99.90
3954;DHT22;1991;48.682;9.030;2023-02-01T16:52:17;4.40;99.90
3954;DHT22;1991;48.682;9.030;2023-02-01T16:54:43;4.40;99.90
3954;DHT22;1991;48.682;9.030;2023-02-01T16:57:14;4.30;99.90
3954;DHT22;1991;48.682;9.030;2023-02-01T16:59:40;4.40;99.90
3954;DHT22;1991;48.682;9.030;2023-02-01T17:02:16;4.40;99.90
3954;DHT22;1991;48.682;9.030;2023-02-01T17:04:42;4.40;99.90
3954;DHT22;1991;48.682;9.030;2023-02-01T17:07:18;4.40;99.90
3954;DHT22;1991;48.682;9.030;2023-02-01T17:09:45;4.30;99.90
3954;DHT22;1991;48.682;9.030;2023-02-01T17:12:29;4.40;99.90
3954;DHT22;1991;48.682;9.030;2023-02-01T17:14:56;4.40;99.90
3954;DHT22;1991;48.682;9.030;2023-02-01T17:17:23;4.40;99.90
3954;DHT22;1991;48.682;9.030;2023-02-01T17:19:51;4.30;99.90
3954;DHT22;1991;48.682;9.030;2023-02-01T17:22:18;4.40;99.90
3954;DHT22;1991;48.682;9.030;2023-02-01T17:24:43;4.40;99.90
3954;DHT22;1991;48.682;9.030;2023-02-01T17:27:09;4.40;99.90
3954;DHT22;1991;48.682;9.030;2023-02-01T17:29:35;4.50;99.90
3954;DHT22;1991;48.682;9.030;2023-02-01T17:32:01;5.90;99.90
3954;DHT22;1991;48.682;9.030;2023-02-01T17:34:27;4.60;99.90
3954;DHT22;1991;48.682;9.030;2023-02-01T17:36:53;4.60;99.90
3954;DHT22;1991;48.682;9.030;2023-02-01T17:39:18;4.60;99.90
3954;DHT22;1991;48.682;9.030;2023-02-01T17:42:04;4.60;99.90
3954;DHT22;1991;48.682;9.030;2023-02-01T17:44:30;4.50;99.90
3954;DHT22;1991;48.682;9.030;2023-02-01T17:46:55;4.60;99.90
3954;DHT22;1991;48.682;9.030;2023-02-01T17:49:23;4.60;99.90
3954;DHT22;1991;48.682;9.030;2023-02-01T17:51:48;4.70;99.90
3954;DHT22;1991;48.682;9.030;2023-02-01T17:54:17;4.70;99.90
3954;DHT22;1991;48.682;9.030;2023-02-01T17:56:45;4.60;99.90
3954;DHT22;1991;48.682;9.030;2023-02-01T17:59:13;4.40;99.90
3954;DHT22;1991;48.682;9.030;2023-02-01T18:01:39;4.20;99.90
3954;DHT22;1991;48.682;9.030;2023-02-01T18:04:05;4.20;99.90
3954;DHT22;1991;48.682;9.030;2023-02-01T18:06:33;4.20;99.90
3954;DHT22;1991;48.682;9.030;2023-02-01T18:08:59;4.00;99.90
3954;DHT22;1991;48.682;9.030;2023-02-01T18:11:24;4.20;99.90
3954;DHT22;1991;48.682;9.030;2023-02-01T18:13:52;4.30;99.90
3954;DHT22;1991;48.682;9.030;2023-02-01T18:16:35;4.30;99.90
3954;DHT22;1991;48.682;9.030;2023-02-01T18:19:02;4.20;99.90
3954;DHT22;1991;48.682;9.030;2023-02-01T18:21:41;4.30;99.90
3954;DHT22;1991;48.682;9.030;2023-02-01T18:24:12;4.30;99.90
3954;DHT22;1991;48.682;9.030;2023-02-01T18:26:38;4.20;99.90
3954;DHT22;1991;48.682;9.030;2023-02-01T18:29:04;4.20;99.90
3954;DHT22;1991;48.682;9.030;2023-02-01T18:31:31;4.20;99.90
3954;DHT22;1991;48.682;9.030;2023-02-01T18:33:58;4.00;99.90
3954;DHT22;1991;48.682;9.030;2023-02-01T18:36:25;4.00;99.90
3954;DHT22;1991;48.682;9.030;2023-02-01T18:38:51;4.00;99.90
3954;DHT22;1991;48.682;9.030;2023-02-01T18:41:20;4.10;99.90